Accueil
METAR-TAF:

METAR-TAF

Aéroports :

Wittering, Angleterre

latitude: 52-37N, longitude: 000-28W, altitude: 84 m

Observation

Le bulletin a été fait il y a 51 minutes, à 14:50 UTC
Vent 8 kt de sud
Température 20°C
Humidité 68%
Pression 1017 hPa
Visibilité 10 km ou plus

METAR: EGXT 211450Z AUTO 18008KT 9999 FEW070/// SCT110/// 20/14 Q1017

Heure: 16:41 (15:41 UTC)

Prévision

Le bulletin a été fait il y a 5 heures et 21 minutes, à 10:20 UTC
Prévision valable du 21 à 12 UTC au 21 à 15 UTC
Vent 6 kt de sud-est
Visibilité 10 km ou plus
Quelques nuages à une hauteur de 3000 ft

TAF: EGXT 211020Z 2112/2115 14006KT 9999 FEW030

Observations et prévisions météorologiques de plus de 4000 aéroports (messages METAR et TAF).

Les stations disponibles sont représentées par des disques jaunes et rouges sur la carte.

Passer la souris dessus pour voir le nom de la station.

Cliquer dessus pour voir les observations et prévisions météorologiques.

Pour changer de carte: cliquez sur les boutons verts avec une croix noire pour zoomer, sur le bouton vert avec un tiret pour effectuer un zoom arrière, ou sur les flèches vertes pour les cartes adjacentes.


METAR-TAF: